Airfield :
LOGIN :

Register | Disclaimer

   EN    FR    IT 

 










Legend :    VFR   Marginal VFR   IFR   Intensive IFR   Very Intensive IFR
Visi :
Ceiling :
>= 8 km
>= 3000ft
5 to 8 km
1000 to 3000 ft
1500m to 5 km
500 to 1000 ft
800 to 1500m
200 to 500 ft
< 800m
< 200 ft
Symbols :   Thunderstorms  Fog  Heavy snow  Heavy precipitations  Wind > 20 kt
SIGMETs :     Misc.  Thunderstorms  Icing  Turbulence  Mountain Waves  Volcanic Ashes







- Airport Elevation : 14 ft
- IATA code : BRE


EDDW - Bremen Neuenland

CURRENT METAR :
  • 301620Z 11018G30KT CAVOK 15/M01 Q1012 NOSIG

EXPIRED METARs :
  • 301550Z 12016G30KT CAVOK 15/M01 Q1012 NOSIG
  • 301520Z 11019G29KT 090V160 CAVOK 15/M02 Q1013 NOSIG
  • 301450Z 11017KT CAVOK 15/M01 Q1013 TEMPO 12015G25KT
  • 301420Z 13017KT 100V160 CAVOK 15/M00 Q1013 TEMPO 12015G25KT
  • 301350Z 11017G30KT 070V150 CAVOK 15/M00 Q1014 NOSIG

TAF TAF EDDW
Valid from the 30 at 12:00 until the 01 at 12:00 UTC


301100Z 3012/0112 11015G30KT CAVOK
BECMG 3017/3019 10012KT
BECMG 0109/0111 10015G30KT
No reported NOTAMs for that airfield.



MET'MAP, your aeronautical weather chart ! - Copyright ORBIFLY December 2007 - Disclaimer

ORBIFLY MET'MAP TEAM :

Programming & Development : Alexandra Zaïnal
Concept & Development : Baudouin d'Aumeries
Co-Development & Prog : Marc-Olivier Méhu
Technical & hardware support : Manuel Goepfert

Contact : metmap@orbifly.com




SOURCES & CREDITS :

   NOAA